Latest Coastal Weather Observations for Cape Bruny AWS

IDT60701

Issued at 1:42 pm EST Thursday 7 May 2015 (issued every 10 minutes, with the page automatically refreshed every 10 minutes)

About coastal observations | Map of coastal stations | Coastal observations for TAS | Marine services | Other Formats
Station Details ID: 094198 Name: CAPE BRUNY (CAPE BRUNY) Lat: -43.49 Lon: 147.14 Height: 59.7 m
Data from the previous 72 hours. | See also: Recent months at Cape Bruny AWS
Date/Time
EST
Temp

°C
Wind Pressure Rain
since 9am
mm
Weather Cloud Vis
km
Sea
Height
m
Swell
Dir
 
Speed
knots
Gust
knots
hPa Trend Height
m
Period
s
Dir
07/01:32pm 6.9 W 29 39 1002.7 - 1.6 - - - - - - -
07/01:30pm 7.4 W 29 37 1002.8 - 1.6 - - - - - - -
07/01:00pm 6.3 WNW 24 39 1002.6 - 1.4 - - - - - - -
07/12:47pm 6.1 WNW 27 37 1002.9 - 1.2 - - - - - - -
07/12:39pm 5.9 W 26 37 1002.9 - 1.2 - - - - - - -
07/12:32pm 5.7 WNW 21 36 1002.7 - 0.8 - - - - - - -
07/12:30pm 5.8 WNW 20 26 1002.7 - 0.6 - - - - - - -
07/12:13pm 7.5 WNW 20 25 1002.9 - 0.4 - - - - - - -
07/12:00pm 7.6 W 25 34 1003.0 - 0.4 - - - - - - -
07/11:30am 6.5 W 31 42 1003.1 - 0.4 - - - - - - -
07/11:23am 5.9 W 31 42 1003.0 - 0.4 - - - - - - -
07/11:17am 6.6 W 27 39 1003.3 - 0.4 - - - - - - -
07/11:10am 6.7 W 19 29 1003.3 - 0.4 - - - - - - -
07/11:00am 6.6 W 17 23 1003.3 - 0.4 - - - - - - -
07/10:54am 5.8 W 20 27 1003.4 - 0.4 - - - - - - -
07/10:30am 5.6 WNW 23 36 1003.0 - 0.2 - - - - - - -
07/10:18am 5.5 NW 18 28 1002.9 - 0.2 - - - - - - -
07/10:00am 5.5 NW 16 20 1002.7 - 0.0 - - - - - - -
07/09:48am 5.9 WNW 18 28 1002.8 - 0.0 - - - - - - -
07/09:30am 5.4 W 23 29 1002.5 - 0.0 - - - - - - -
07/09:07am 4.9 W 29 39 1002.5 - 0.0 - - - - - - -
07/09:00am 4.8 WSW 32 41 1002.6 - 17.0 Rain - - - - - -
07/08:50am 4.8 WNW 21 47 1002.6 - 16.8 - - - - - - -
07/08:49am 5.3 WNW 19 47 1002.6 - 16.8 - - - - - - -
07/08:48am 7.0 WNW 17 28 1002.6 - 16.8 - - - - - - -
07/08:36am 6.1 WNW 21 31 1001.9 - 16.8 - - - - - - -
07/08:30am 6.4 W 25 31 1001.9 - 16.8 - - - - - - -
07/08:00am 5.0 W 23 29 1001.7 - 16.8 - - - - - - -
07/07:35am 5.9 W 25 35 1001.7 - 16.2 - - - - - - -
07/07:30am 5.9 W 27 36 1001.2 - 16.2 - - - - - - -
07/07:00am 5.2 W 30 41 1001.1 - 16.2 - - - - - - -
07/06:56am 5.2 W 29 40 1000.8 - 16.2 - - - - - - -
07/06:30am 5.1 WNW 27 36 1000.4 - 15.8 - - - - - - -
07/06:14am 5.0 WNW 27 37 1000.1 - 15.6 - - - - - - -
07/06:03am 5.0 WNW 35 45 1000.3 - 15.6 - - - - - - -
07/06:00am 4.7 W 36 45 1000.3 - 15.6 Rain - - - - - -
07/05:54am 5.1 W 33 45 1000.1 - 15.6 - - - - - - -
07/05:43am 5.2 W 29 39 1000.1 - 15.2 - - - - - - -
07/05:39am 5.2 W 28 35 1000.1 - 15.2 - - - - - - -
07/05:31am 5.5 NW 22 34 999.5 - 14.8 - - - - - - -
07/05:30am 5.4 NW 21 27 999.5 - 14.8 - - - - - - -
07/05:00am 5.5 WNW 25 32 999.2 - 14.8 - - - - - - -
07/04:30am 4.9 W 26 33 999.5 - 14.8 - - - - - - -
07/04:11am 4.4 W 14 29 999.9 - 14.4 - - - - - - -
07/04:00am 4.8 WNW 13 19 999.2 - 14.0 - - - - - - -
07/03:30am 4.9 NW 24 35 999.2 - 12.8 - - - - - - -
07/03:26am 5.0 WNW 24 35 999.0 - 12.8 - - - - - - -
07/03:00am 6.3 WNW 25 32 998.8 - 12.4 Recent precip. - - - - - -
07/02:57am 6.1 WNW 26 32 998.7 - 12.4 - - - - - - -
07/02:32am 5.3 W 33 43 998.6 - 12.4 - - - - - - -
07/02:30am 5.0 W 34 43 998.6 - 12.4 - - - - - - -
07/02:18am 5.2 W 33 53 998.8 - 12.2 - - - - - - -
07/02:17am 5.4 W 31 53 999.0 - 12.2 - - - - - - -
07/02:13am 5.1 W 30 40 999.3 - 12.2 - - - - - - -
07/02:00am 5.3 W 34 41 998.5 - 12.0 - - - - - - -
07/01:51am 5.3 WNW 20 38 998.6 - 11.6 - - - - - - -
07/01:48am 5.6 WNW 16 28 998.8 - 11.4 - - - - - - -
07/01:42am 5.3 WNW 21 28 998.6 - 11.4 - - - - - - -
07/01:30am 5.5 W 27 33 998.5 - 11.4 - - - - - - -
07/01:00am 5.0 W 31 43 998.6 - 11.0 - - - - - - -
07/12:56am 5.2 WNW 28 43 998.6 - 10.2 - - - - - - -
07/12:55am 5.4 WNW 27 43 998.8 - 10.0 - - - - - - -
07/12:30am 5.9 WNW 23 34 997.4 - 9.4 - - - - - - -
07/12:00am 5.6 NW 25 35 997.7 - 9.4 Recent precip. - - - - - -
 
Date/Time
EST
Temp

°C
Wind Pressure Rain
since 9am
mm
Weather Cloud Vis
km
Sea
Height
m
Swell
Dir
 
Speed
knots
Gust
knots
hPa Trend Height
m
Period
s
Dir
06/11:56pm 5.2 NW 23 33 997.7 - 9.4 - - - - - - -
06/11:30pm 4.9 WNW 24 34 997.6 - 9.4 - - - - - - -
06/11:05pm 5.4 W 30 43 998.5 - 9.0 - - - - - - -
06/11:00pm 5.5 W 22 41 998.5 - 9.0 - - - - - - -
06/10:58pm 5.6 WNW 19 31 998.7 - 9.0 - - - - - - -
06/10:30pm 4.7 NNW 16 24 997.4 - 9.0 - - - - - - -
06/10:04pm 5.3 NW 18 31 997.5 - 8.8 - - - - - - -
06/10:00pm 5.3 NW 19 25 997.8 - 8.8 - - - - - - -
06/09:30pm 5.4 WNW 17 23 998.0 - 8.8 - - - - - - -
06/09:13pm 5.4 WNW 23 35 998.5 - 8.8 - - - - - - -
06/09:10pm 5.5 WNW 23 35 998.3 - 8.8 - - - - - - -
06/09:00pm 5.7 WNW 18 31 998.1 - 8.4 - - - - - - -
06/08:58pm 5.8 WNW 17 31 998.1 - 8.4 - - - - - - -
06/08:30pm 6.4 WNW 21 27 997.7 - 8.4 - - - - - - -
06/08:10pm 6.3 NW 22 32 997.7 - 8.4 - - - - - - -
06/08:00pm 6.1 NW 21 25 997.6 - 8.4 - - - - - - -
06/07:30pm 5.6 NW 21 27 997.8 - 8.4 - - - - - - -
06/07:00pm 5.8 WNW 20 30 997.9 - 8.2 - - - - - - -
06/06:30pm 4.8 NW 15 23 997.2 - 8.2 - - - - - - -
06/06:20pm 5.2 WNW 23 32 997.4 - 8.0 - - - - - - -
06/06:00pm 5.5 W 29 41 997.0 - 7.4 Rain - - - - - -
06/05:56pm 6.2 W 25 38 997.0 - 7.0 - - - - - - -
06/05:49pm 6.8 WNW 22 30 997.3 - 7.0 - - - - - - -
06/05:40pm 6.8 NW 21 31 996.4 - 7.0 - - - - - - -
06/05:30pm 6.6 WNW 24 31 995.7 - 7.0 - - - - - - -
06/05:08pm 6.6 WNW 19 32 996.1 - 7.0 - - - - - - -
06/05:00pm 6.5 WNW 21 30 995.9 - 7.0 - - - - - - -
06/04:30pm 7.2 WNW 26 40 995.5 - 7.0 - - - - - - -
06/04:13pm 6.8 WNW 22 35 995.3 - 7.0 - - - - - - -
06/04:00pm 6.7 WNW 20 26 995.2 - 7.0 - - - - - - -
06/03:31pm 7.8 WNW 20 42 995.2 - 6.8 - - - - - - -
06/03:30pm 7.6 WNW 19 32 995.1 - 6.8 - - - - - - -
06/03:27pm 7.4 WNW 15 28 995.0 - 6.8 - - - - - - -
06/03:00pm 7.0 WNW 18 26 994.5 - 6.8 Recent precip. - - - - - -
06/02:30pm 7.1 WNW 26 37 993.8 - 6.4 - - - - - - -
06/02:22pm 6.9 NW 24 37 993.7 - 6.4 - - - - - - -
06/02:21pm 7.1 NW 24 35 993.7 - 6.4 - - - - - - -
06/02:00pm 6.6 WNW 17 25 994.1 - 6.4 - - - - - - -
06/01:45pm 6.6 WNW 27 37 994.0 - 6.2 - - - - - - -
06/01:30pm 7.5 WNW 24 33 993.8 - 5.8 - - - - - - -
06/01:03pm 7.2 WNW 19 29 993.7 - 5.8 - - - - - - -
06/01:00pm 7.1 WNW 18 23 993.9 - 5.6 - - - - - - -
06/12:44pm 7.3 WNW 21 31 994.3 - 5.4 - - - - - - -
06/12:30pm 7.8 WNW 22 29 994.0 - 5.0 - - - - - - -
06/12:07pm 7.3 WNW 17 31 994.1 - 4.2 - - - - - - -
06/12:00pm 7.8 WNW 18 22 994.3 - 3.6 Rain - - - - - -
06/11:30am 8.4 W 20 27 993.6 - 2.2 - - - - - - -
06/11:00am 8.8 NW 15 21 993.6 - 0.2 - - - - - - -
06/10:30am 9.2 NW 21 29 993.4 - 0.0 - - - - - - -
06/10:10am 9.7 NW 17 27 993.6 - 0.0 - - - - - - -
06/10:00am 10.6 NW 19 26 993.2 - 0.0 - - - - - - -
06/09:31am 10.9 NW 19 29 992.9 - 0.0 - - - - - - -
06/09:30am 11.0 NW 18 25 993.0 - 0.0 - - - - - - -
06/09:00am 9.8 NW 14 18 993.1 - 4.0 - - - - - - -
06/08:30am 9.7 NW 19 25 993.1 - 4.0 - - - - - - -
06/08:00am 9.2 NW 19 23 993.3 - 4.0 - - - - - - -
06/07:34am 9.0 NW 19 33 992.9 - 4.0 - - - - - - -
06/07:30am 9.1 NW 18 25 993.2 - 4.0 - - - - - - -
06/07:00am 9.1 WNW 21 31 992.6 - 4.0 - - - - - - -
06/06:40am 9.0 WNW 23 34 992.6 - 4.0 - - - - - - -
06/06:30am 9.0 WNW 25 33 992.5 - 4.0 - - - - - - -
06/06:15am 8.7 WNW 20 32 992.5 - 4.0 - - - - - - -
06/06:00am 8.5 NW 20 27 992.7 - 4.0 Recent precip. - - - - - -
06/05:30am 8.6 WNW 22 33 992.5 - 3.8 - - - - - - -
06/05:12am 8.6 WNW 19 29 992.1 - 3.8 - - - - - - -
06/05:00am 8.9 WNW 22 31 991.9 - 3.8 - - - - - - -
06/04:37am 9.2 WNW 28 41 991.3 - 3.8 - - - - - - -
06/04:34am 9.3 WNW 27 41 990.8 - 3.8 - - - - - - -
06/04:30am 8.9 WNW 23 34 991.0 - 3.8 - - - - - - -
06/04:00am 9.5 W 29 39 990.6 - 3.8 - - - - - - -
06/03:30am 9.1 W 27 38 990.4 - 3.8 - - - - - - -
06/03:00am 8.0 WNW 28 47 990.6 - 3.8 Recent precip. - - - - - -
06/02:56am 7.9 WNW 23 47 990.6 - 3.8 - - - - - - -
06/02:33am 8.5 WNW 21 31 989.9 - 3.8 - - - - - - -
06/02:30am 8.7 WNW 20 29 989.9 - 3.8 - - - - - - -
06/02:20am 8.3 WNW 24 34 989.2 - 3.8 - - - - - - -
06/02:00am 8.9 WNW 27 35 988.4 - 3.4 - - - - - - -
06/01:45am 9.1 W 31 39 987.7 - 3.4 - - - - - - -
06/01:31am 9.7 WNW 33 49 987.4 - 3.4 - - - - - - -
06/01:30am 9.7 WNW 32 49 987.2 - 3.4 - - - - - - -
06/01:28am 9.5 WNW 30 40 987.2 - 3.4 - - - - - - -
06/01:00am 9.8 W 31 40 987.7 - 3.2 - - - - - - -
06/12:46am 9.9 WNW 28 38 987.3 - 3.2 - - - - - - -
06/12:30am 10.3 WNW 27 34 986.7 - 3.0 - - - - - - -
06/12:04am 11.1 WNW 25 35 986.5 - 3.0 - - - - - - -
06/12:00am 10.9 WNW 24 32 986.3 - 3.0 - - - - - - -
 
Date/Time
EST
Temp

°C
Wind Pressure Rain
since 9am
mm
Weather Cloud Vis
km
Sea
Height
m
Swell
Dir
 
Speed
knots
Gust
knots
hPa Trend Height
m
Period
s
Dir
05/11:35pm 11.0 WNW 28 43 985.4 - 3.0 - - - - - - -
05/11:33pm 11.2 WNW 31 45 985.5 - 3.0 - - - - - - -
05/11:30pm 11.4 WNW 34 47 985.5 - 3.0 - - - - - - -
05/11:07pm 10.8 WNW 30 40 984.8 - 3.0 - - - - - - -
05/11:00pm 11.0 WNW 30 39 984.7 - 3.0 - - - - - - -
05/10:41pm 10.8 WNW 30 40 984.1 - 3.0 - - - - - - -
05/10:30pm 10.9 WNW 33 39 983.6 - 3.0 - - - - - - -
05/10:14pm 10.9 WNW 31 50 983.1 - 3.0 - - - - - - -
05/10:13pm 10.8 WNW 31 50 982.9 - 3.0 - - - - - - -
05/10:12pm 10.6 WNW 30 50 983.1 - 3.0 - - - - - - -
05/10:00pm 10.7 WNW 28 39 983.1 - 3.0 - - - - - - -
05/09:30pm 11.0 WNW 27 41 982.3 - 3.0 - - - - - - -
05/09:15pm 11.1 WNW 26 39 981.9 - 2.8 - - - - - - -
05/09:00pm 11.3 WNW 28 34 981.3 - 2.8 Recent precip. - - - - - -
05/08:34pm 11.0 NW 22 33 980.4 - 2.6 - - - - - - -
05/08:30pm 10.8 NW 20 27 980.4 - 2.6 - - - - - - -
05/08:21pm 10.4 NNW 15 25 980.2 - 2.6 - - - - - - -
05/08:00pm 10.4 NNW 15 22 979.6 - 2.4 - - - - - - -
05/07:30pm 9.4 NNW 14 22 979.1 - 2.4 - - - - - - -
05/07:00pm 9.3 NNW 16 23 979.0 - 2.4 - - - - - - -
05/06:30pm 9.4 NW 16 21 978.6 - 2.4 - - - - - - -
05/06:00pm 9.6 NW 18 26 978.4 - 2.4 - - - - - - -
05/05:30pm 10.2 NW 18 28 978.8 - 2.4 - - - - - - -
05/05:00pm 11.1 NW 23 38 978.7 - 2.4 - - - - - - -
05/04:54pm 12.1 NW 20 38 978.8 - 2.4 - - - - - - -
05/04:30pm 12.3 NW 17 27 979.0 - 2.4 - - - - - - -
05/04:21pm 12.5 NNW 15 26 979.1 - 2.4 - - - - - - -
05/04:00pm 13.1 NNW 12 21 979.8 - 2.4 - - - - - - -
05/03:30pm 14.0 NNW 16 27 980.4 - 2.4 - - - - - - -
05/03:22pm 13.7 NNW 16 27 980.7 - 2.4 - - - - - - -
05/03:14pm 13.6 NNW 16 28 981.0 - 2.4 - - - - - - -
05/03:00pm 14.1 NW 20 34 981.4 - 2.4 - - - - - - -
05/02:42pm 14.8 NW 16 27 981.5 - 2.4 - - - - - - -
05/02:30pm 14.8 NW 16 25 981.2 - 2.4 - - - - - - -
05/02:27pm 14.8 NW 15 25 981.1 - 2.4 - - - - - - -
05/02:00pm 14.8 NW 16 24 981.5 - 2.4 - - - - - - -
05/01:30pm 13.9 NNW 11 21 982.3 - 2.4 - - - - - - -
05/01:00pm 13.6 N 10 13 983.0 - 2.4 - - - - - - -
05/12:30pm 12.5 N 8 14 983.6 - 2.4 - - - - - - -
05/12:00pm 11.5 NNE 7 11 984.0 - 2.4 - - - - - - -
05/11:30am 11.2 N 9 14 984.8 - 2.4 - - - - - - -
05/11:00am 11.0 NNW 9 14 985.9 - 2.4 - - - - - - -
05/10:30am 11.0 NNW 13 17 987.1 - 2.2 - - - - - - -
05/10:25am 11.3 NW 15 27 987.2 - 2.2 - - - - - - -
05/10:10am 11.5 WNW 20 30 987.0 - 2.2 - - - - - - -
05/10:00am 11.6 WNW 26 36 987.2 - 1.8 - - - - - - -
05/09:52am 11.9 WNW 23 36 987.2 - 1.2 - - - - - - -
05/09:31am 14.7 NNW 12 26 987.3 - 0.0 - - - - - - -
05/09:30am 14.8 NNW 11 23 987.2 - 0.0 - - - - - - -
05/09:00am 14.8 NNE 10 16 986.8 - 0.8 - - - - - - -
05/08:30am 15.4 NNW 11 16 988.0 - 0.8 - - - - - - -
05/08:00am 14.6 N 9 15 987.7 - 0.8 - - - - - - -
05/07:30am 14.4 NNE 8 15 988.8 - 0.8 - - - - - - -
05/07:00am 13.8 ENE 4 6 989.2 - 0.8 - - - - - - -
05/06:30am 13.4 NE 7 8 989.9 - 0.8 - - - - - - -
05/06:00am 13.7 NNE 7 11 991.1 - 0.8 - - - - - - -
05/05:30am 13.2 NE 8 11 991.8 - 0.8 - - - - - - -
05/05:00am 13.0 ESE 6 9 991.3 - 0.8 - - - - - - -
05/04:57am 13.2 ESE 6 9 991.2 - 0.8 - - - - - - -
05/04:30am 13.6 NE 4 10 993.2 - 0.8 - - - - - - -
05/04:00am 13.6 ESE 3 6 994.3 - 0.6 - - - - - - -
05/03:30am 13.8 NNE 6 8 995.1 - 0.4 - - - - - - -
05/03:00am 14.6 N 9 13 995.9 - 0.2 - - - - - - -
05/02:30am 15.2 N 11 18 996.7 - 0.2 - - - - - - -
05/02:00am 14.4 N 11 16 997.1 - 0.2 - - - - - - -
05/01:30am 13.5 N 11 15 997.6 - 0.2 - - - - - - -
05/01:00am 13.7 N 12 17 998.0 - 0.2 - - - - - - -
05/12:30am 13.9 NNE 12 15 997.5 - 0.2 - - - - - - -
05/12:00am 13.4 NNE 10 16 998.0 - 0.2 - - - - - - -
 
Date/Time
EST
Temp

°C
Wind Pressure Rain
since 9am
mm
Weather Cloud Vis
km
Sea
Height
m
Swell
Dir
 
Speed
knots
Gust
knots
hPa Trend Height
m
Period
s
Dir
04/11:30pm 13.1 NNE 11 16 998.8 - 0.2 - - - - - - -
04/11:00pm 13.2 N 11 16 1000.2 - 0.2 - - - - - - -
04/10:30pm 12.8 NNE 7 10 1000.1 - 0.2 - - - - - - -
04/10:00pm 13.0 N 7 11 1001.3 - 0.2 - - - - - - -
04/09:30pm 13.1 N 11 15 1001.9 - 0.2 - - - - - - -
04/09:00pm 12.8 NNE 7 9 1002.5 - 0.2 - - - - - - -
04/08:30pm 12.6 N 6 9 1003.2 - 0.2 - - - - - - -
04/08:00pm 12.6 NE 8 9 1003.7 - 0.2 - - - - - - -
04/07:30pm 12.9 NNE 7 11 1004.5 - 0.2 - - - - - - -
04/07:00pm 13.1 N 6 9 1005.3 - 0.2 - - - - - - -
04/06:30pm 12.5 NNW 6 8 1005.8 - 0.2 - - - - - - -
04/06:00pm 12.2 NNE 5 7 1005.2 - 0.2 - - - - - - -
04/05:30pm 12.7 N 5 8 1005.4 - 0.2 - - - - - - -
04/05:00pm 12.7 N 7 11 1005.9 - 0.2 - - - - - - -
04/04:30pm 12.3 NNE 8 10 1006.0 - 0.2 - - - - - - -
04/04:00pm 12.7 NNE 6 8 1006.5 - 0.0 - - - - - - -
04/03:30pm 12.9 NNE 7 9 1006.9 - 0.0 - - - - - - -
04/03:00pm 13.6 N 5 6 1008.0 - 0.0 - - - - - - -
04/02:30pm 13.4 NNE 5 8 1008.3 - 0.0 - - - - - - -
04/02:00pm 13.5 N 5 8 1008.8 - 0.0 - - - - - - -

Other Formats:

Comma delimited format used in spreadsheet applications
http://www.bom.gov.au/fwo/IDT60701/IDT60701.95967.axf

JavaScript Object Notation format (JSON) in row-major order
http://www.bom.gov.au/fwo/IDT60701/IDT60701.95967.json